createdAt,value
2023-02-05T00:04:25.780Z,88.74
2023-02-05T00:09:29.284Z,89.47
2023-02-05T00:14:32.046Z,89.61
2023-02-05T00:19:36.320Z,89.41
2023-02-05T00:24:39.119Z,89.38
2023-02-05T00:29:42.400Z,89.15
2023-02-05T00:34:46.726Z,88.84
2023-02-05T00:39:49.614Z,89.11
2023-02-05T00:44:52.434Z,90.10
2023-02-05T00:49:56.505Z,89.59
2023-02-05T00:54:59.321Z,90.65
2023-02-05T01:00:02.158Z,91.31
2023-02-05T01:05:06.893Z,90.93
2023-02-05T01:10:10.386Z,90.54
2023-02-05T01:15:14.597Z,90.46
2023-02-05T01:20:20.523Z,90.85
2023-02-05T01:25:23.699Z,90.52
2023-02-05T01:30:27.642Z,89.62
2023-02-05T01:35:32.451Z,90.82
2023-02-05T01:40:35.606Z,91.39
2023-02-05T01:45:51.806Z,91.35
2023-02-05T01:51:00.410Z,90.25
2023-02-05T01:56:07.318Z,90.34
2023-02-05T02:01:10.290Z,90.56
2023-02-05T02:06:14.681Z,88.79
2023-02-05T02:11:22.520Z,89.89
2023-02-05T02:16:27.005Z,89.88
2023-02-05T02:21:51.426Z,89.00
2023-02-05T02:27:11.011Z,87.61
2023-02-05T02:32:22.263Z,86.34
2023-02-05T02:37:34.456Z,85.83
2023-02-05T02:42:44.851Z,84.43
2023-02-05T02:47:54.514Z,84.10
2023-02-05T02:52:58.310Z,84.56
2023-02-05T02:58:03.242Z,85.76
2023-02-05T03:03:12.614Z,84.57
2023-02-05T03:08:22.040Z,84.30
2023-02-05T03:13:25.104Z,84.06
2023-02-05T03:18:38.148Z,83.74
2023-02-05T03:23:41.163Z,83.92
2023-02-05T03:28:46.693Z,83.81
2023-02-05T03:34:05.578Z,83.17
2023-02-05T03:39:26.457Z,83.06
2023-02-05T03:44:42.651Z,82.56
2023-02-05T03:49:55.874Z,82.59
2023-02-05T03:55:06.103Z,83.69
2023-02-05T04:00:11.884Z,84.17
2023-02-05T04:05:22.880Z,85.40
2023-02-05T04:10:27.663Z,85.25
2023-02-05T04:15:31.401Z,83.39
2023-02-05T04:20:38.111Z,82.85
2023-02-05T04:25:43.289Z,82.98
2023-02-05T04:30:49.416Z,82.18
2023-02-05T04:35:59.757Z,82.46
2023-02-05T04:41:02.843Z,83.60
2023-02-05T04:46:06.952Z,83.63
2023-02-05T04:51:13.702Z,83.25
2023-02-05T04:56:18.373Z,82.70
2023-02-05T05:01:23.830Z,81.97
2023-02-05T05:06:28.030Z,82.21
2023-02-05T05:11:30.897Z,81.92
2023-02-05T05:16:33.689Z,81.21
2023-02-05T05:21:38.001Z,81.90
2023-02-05T05:26:43.836Z,82.52
2023-02-05T05:31:46.772Z,82.02
2023-02-05T05:36:51.404Z,81.64
2023-02-05T05:42:12.026Z,82.11
2023-02-05T05:47:14.883Z,81.81
2023-02-05T05:52:19.202Z,81.32
2023-02-05T05:57:22.092Z,81.44
2023-02-05T06:02:24.919Z,80.52
2023-02-05T06:07:29.090Z,81.10
2023-02-05T06:12:32.004Z,81.85
2023-02-05T06:17:35.902Z,81.92
2023-02-05T06:22:40.518Z,83.55
2023-02-05T06:27:43.459Z,82.15
2023-02-05T06:32:46.543Z,82.45
2023-02-05T06:37:50.718Z,81.34
2023-02-05T06:42:53.959Z,80.25
2023-02-05T06:47:57.616Z,80.68
2023-02-05T06:53:01.736Z,79.82
2023-02-05T06:58:04.672Z,80.22
2023-02-05T07:03:07.451Z,80.00
2023-02-05T07:08:11.538Z,80.81
2023-02-05T07:13:14.437Z,81.66
2023-02-05T07:18:17.595Z,82.13
2023-02-05T07:23:21.728Z,82.51
2023-02-05T07:28:24.706Z,81.27
2023-02-05T07:33:27.499Z,80.52
2023-02-05T07:38:31.869Z,80.17
2023-02-05T07:43:35.056Z,80.57
2023-02-05T07:48:38.410Z,81.43
2023-02-05T07:53:42.632Z,79.85
2023-02-05T07:58:45.351Z,80.22
2023-02-05T08:03:48.543Z,80.69
2023-02-05T08:08:52.727Z,80.38
2023-02-05T08:13:55.518Z,79.59
2023-02-05T08:18:58.329Z,78.64
2023-02-05T08:24:03.155Z,77.44
2023-02-05T08:29:06.026Z,76.85
2023-02-05T08:34:08.890Z,75.66
2023-02-05T08:39:13.277Z,74.61
2023-02-05T08:44:16.066Z,73.88
2023-02-05T08:49:19.620Z,72.34
2023-02-05T08:54:23.908Z,71.22
2023-02-05T08:59:26.711Z,71.29
2023-02-05T09:04:29.613Z,72.57
2023-02-05T09:09:34.944Z,71.44
2023-02-05T09:14:37.736Z,71.91
2023-02-05T09:19:41.885Z,70.74
2023-02-05T09:24:46.038Z,70.82
2023-02-05T09:29:48.784Z,70.37
2023-02-05T09:34:51.559Z,70.08
2023-02-05T09:45:35.576Z,69.45
2023-02-05T09:50:42.164Z,68.85
2023-02-05T09:55:48.389Z,67.83
2023-02-05T10:00:57.975Z,67.86
2023-02-05T10:06:16.966Z,68.11
2023-02-05T10:11:32.659Z,67.68
2023-02-05T10:16:51.512Z,68.73
2023-02-05T10:22:11.047Z,67.84
2023-02-05T10:27:20.728Z,67.21
2023-02-05T10:32:25.628Z,66.35
2023-02-05T10:37:39.476Z,66.17
2023-02-05T10:42:48.790Z,64.44
2023-02-05T10:48:11.645Z,63.19
2023-02-05T10:53:18.117Z,64.15
2023-02-05T10:58:49.068Z,64.36
2023-02-05T11:04:04.332Z,64.58
2023-02-05T11:09:30.219Z,65.85
2023-02-05T11:14:38.192Z,65.83
2023-02-05T11:19:41.324Z,65.49
2023-02-05T11:24:44.204Z,64.25
2023-02-05T11:29:51.667Z,65.21
2023-02-05T11:35:10.744Z,64.81
2023-02-05T11:40:23.447Z,64.39
2023-02-05T11:45:29.036Z,64.47
2023-02-05T11:50:33.442Z,63.37
2023-02-05T11:55:37.720Z,61.22
2023-02-05T12:00:52.308Z,63.53
2023-02-05T12:06:00.322Z,62.84
2023-02-05T12:11:28.921Z,62.83
2023-02-05T12:16:46.441Z,62.96
2023-02-05T12:21:59.965Z,62.80
2023-02-05T12:27:09.632Z,60.65
2023-02-05T12:32:20.203Z,63.08
2023-02-05T12:37:41.016Z,62.59
2023-02-05T12:42:55.669Z,63.48
2023-02-05T12:48:16.636Z,65.63
2023-02-05T12:53:39.011Z,65.67
2023-02-05T12:58:46.123Z,62.96
2023-02-05T13:03:56.217Z,62.49
2023-02-05T13:09:04.247Z,61.96
2023-02-05T13:14:16.485Z,63.13
2023-02-05T13:19:29.400Z,61.26
2023-02-05T13:24:55.740Z,62.88
2023-02-05T13:30:02.519Z,62.36
2023-02-05T13:35:11.938Z,62.93
2023-02-05T13:40:41.908Z,61.84
2023-02-05T13:46:07.000Z,61.17
2023-02-05T13:51:31.100Z,61.71
2023-02-05T13:56:47.237Z,63.20
2023-02-05T14:01:56.334Z,68.70
2023-02-05T14:07:04.085Z,65.94
2023-02-05T14:12:10.669Z,67.76
2023-02-05T14:17:55.170Z,64.33
2023-02-05T14:23:00.976Z,64.76
2023-02-05T14:28:04.344Z,62.53
2023-02-05T14:33:28.907Z,62.51
2023-02-05T14:38:34.746Z,63.96
2023-02-05T14:44:03.868Z,64.22
2023-02-05T14:49:27.976Z,65.51
2023-02-05T14:54:38.793Z,65.39
2023-02-05T14:59:50.265Z,67.84
2023-02-05T15:04:55.370Z,70.84
2023-02-05T15:10:05.553Z,71.08
2023-02-05T15:15:36.636Z,69.44
2023-02-05T15:20:41.539Z,70.00
2023-02-05T15:25:54.031Z,69.61
2023-02-05T15:31:28.328Z,67.49
2023-02-05T15:36:36.471Z,68.45
2023-02-05T15:41:45.221Z,69.91
2023-02-05T15:46:49.216Z,72.57
2023-02-05T15:51:52.299Z,74.36
2023-02-05T15:56:58.008Z,75.56
2023-02-05T16:02:04.283Z,78.67
2023-02-05T16:07:22.280Z,79.04
2023-02-05T16:12:31.469Z,79.92
2023-02-05T16:17:40.979Z,82.69
2023-02-05T16:22:50.310Z,82.57
2023-02-05T16:27:57.154Z,84.40
2023-02-05T16:33:48.213Z,83.15
2023-02-05T16:39:26.662Z,84.88
2023-02-05T16:58:22.597Z,87.86
2023-02-05T17:03:29.812Z,87.10
2023-02-05T17:08:45.447Z,85.90
2023-02-05T17:13:50.148Z,88.65
2023-02-05T17:18:58.307Z,89.32
2023-02-05T17:24:06.002Z,92.20
2023-02-05T17:29:16.906Z,90.98
2023-02-05T17:34:20.196Z,89.86
2023-02-05T17:39:23.244Z,91.18
2023-02-05T17:44:34.149Z,93.35
2023-02-05T17:49:37.090Z,93.26
2023-02-05T17:54:39.973Z,95.17
2023-02-05T17:59:45.088Z,94.24
2023-02-05T18:04:47.944Z,95.99
2023-02-05T18:09:50.765Z,95.54
2023-02-05T18:14:55.668Z,96.13
2023-02-05T18:19:58.439Z,96.96
2023-02-05T18:25:01.323Z,96.52
2023-02-05T18:30:07.054Z,96.36
2023-02-05T18:35:14.277Z,95.16
2023-02-05T18:40:17.550Z,97.02
2023-02-05T18:45:23.920Z,93.98
2023-02-05T18:50:30.700Z,95.05
2023-02-05T18:55:35.557Z,95.40
2023-02-05T19:00:39.822Z,95.57
2023-02-05T19:05:46.349Z,97.07
2023-02-05T19:10:52.260Z,100.00
2023-02-05T19:15:57.845Z,100.00
2023-02-05T19:21:07.537Z,100.00
2023-02-05T19:26:52.085Z,100.00
2023-02-05T19:33:28.210Z,100.00
2023-02-05T19:38:20.695Z,100.00
2023-02-05T19:43:50.946Z,100.00
2023-02-05T20:27:34.670Z,100.00
2023-02-05T20:40:49.589Z,100.00
2023-02-05T20:53:39.782Z,100.00
2023-02-05T21:23:29.442Z,100.00
2023-02-05T21:28:33.148Z,100.00
2023-02-05T21:33:37.122Z,100.00
2023-02-05T21:38:44.198Z,100.00
2023-02-05T21:43:50.404Z,100.00
2023-02-05T21:48:55.009Z,100.00
2023-02-05T22:07:13.258Z,100.00
2023-02-05T22:18:47.513Z,100.00
2023-02-05T22:24:04.384Z,100.00
2023-02-05T22:29:09.431Z,100.00
2023-02-05T22:34:16.055Z,100.00
2023-02-05T22:39:18.955Z,100.00
2023-02-05T22:44:22.557Z,100.00
2023-02-05T22:49:26.676Z,100.00
2023-02-05T22:54:29.712Z,100.00
2023-02-05T22:59:32.558Z,100.00
2023-02-05T23:04:36.979Z,100.00
2023-02-05T23:09:51.169Z,100.00
2023-02-05T23:15:03.939Z,100.00
2023-02-05T23:20:31.472Z,100.00
2023-02-05T23:25:40.367Z,100.00
2023-02-05T23:30:46.151Z,100.00
2023-02-05T23:35:50.628Z,100.00
2023-02-05T23:40:53.979Z,100.00
2023-02-05T23:45:57.225Z,100.00
2023-02-05T23:51:01.361Z,100.00
2023-02-05T23:56:04.225Z,100.00
